sensor_id;sensor_type;location;lat;lon;timestamp;pressure;altitude;pressure_sealevel;temperature;humidity
34197;BME280;36594;45.192;5.722;2023-02-02T00:00:23;100496.83;;;21.89;29.85
34197;BME280;36594;45.192;5.722;2023-02-02T00:03:11;100497.01;;;21.87;29.90
34197;BME280;36594;45.192;5.722;2023-02-02T00:06:00;100506.70;;;21.90;29.85
34197;BME280;36594;45.192;5.722;2023-02-02T00:08:50;100498.49;;;21.90;29.88
34197;BME280;36594;45.192;5.722;2023-02-02T00:11:40;100488.41;;;21.90;29.89
34197;BME280;36594;45.192;5.722;2023-02-02T00:14:28;100497.76;;;21.92;29.92
34197;BME280;36594;45.192;5.722;2023-02-02T00:17:17;100494.72;;;21.91;29.90
34197;BME280;36594;45.192;5.722;2023-02-02T00:20:07;100498.27;;;21.91;29.97
34197;BME280;36594;45.192;5.722;2023-02-02T00:22:56;100488.41;;;21.90;29.96
34197;BME280;36594;45.192;5.722;2023-02-02T00:25:45;100500.70;;;21.90;29.98
34197;BME280;36594;45.192;5.722;2023-02-02T00:28:34;100497.97;;;21.90;29.99
34197;BME280;36594;45.192;5.722;2023-02-02T00:31:23;100496.61;;;21.90;30.01
34197;BME280;36594;45.192;5.722;2023-02-02T00:34:12;100498.61;;;21.92;29.94
34197;BME280;36594;45.192;5.722;2023-02-02T00:37:01;100508.06;;;21.90;30.01
34197;BME280;36594;45.192;5.722;2023-02-02T00:39:50;100509.95;;;21.89;30.06
34197;BME280;36594;45.192;5.722;2023-02-02T00:42:38;100497.34;;;21.88;30.06
34197;BME280;36594;45.192;5.722;2023-02-02T00:45:26;100492.72;;;21.89;30.07
34197;BME280;36594;45.192;5.722;2023-02-02T00:48:15;100485.97;;;21.91;30.08
34197;BME280;36594;45.192;5.722;2023-02-02T00:51:03;100486.52;;;21.91;30.10
34197;BME280;36594;45.192;5.722;2023-02-02T00:53:51;100478.49;;;21.89;30.10
34197;BME280;36594;45.192;5.722;2023-02-02T00:56:40;100472.28;;;21.91;30.13
34197;BME280;36594;45.192;5.722;2023-02-02T00:59:29;100472.50;;;21.90;30.10
34197;BME280;36594;45.192;5.722;2023-02-02T01:02:17;100480.19;;;21.90;30.13
34197;BME280;36594;45.192;5.722;2023-02-02T01:05:06;100478.94;;;21.93;30.12
34197;BME280;36594;45.192;5.722;2023-02-02T01:07:54;100478.83;;;21.90;30.16
34197;BME280;36594;45.192;5.722;2023-02-02T01:10:42;100485.45;;;21.92;30.15
34197;BME280;36594;45.192;5.722;2023-02-02T01:13:31;100482.53;;;21.93;30.16
34197;BME280;36594;45.192;5.722;2023-02-02T01:16:19;100483.23;;;21.91;30.18
34197;BME280;36594;45.192;5.722;2023-02-02T01:19:14;100484.71;;;21.94;30.21
34197;BME280;36594;45.192;5.722;2023-02-02T01:22:02;100479.24;;;21.94;30.21
34197;BME280;36594;45.192;5.722;2023-02-02T01:24:51;100472.52;;;21.96;30.19
34197;BME280;36594;45.192;5.722;2023-02-02T01:27:39;100472.52;;;21.96;30.19
34197;BME280;36594;45.192;5.722;2023-02-02T01:30:27;100471.48;;;21.97;30.18
34197;BME280;36594;45.192;5.722;2023-02-02T01:33:16;100468.96;;;21.96;30.18
34197;BME280;36594;45.192;5.722;2023-02-02T01:36:09;100466.31;;;21.98;30.18
34197;BME280;36594;45.192;5.722;2023-02-02T01:38:56;100466.53;;;21.97;30.18
34197;BME280;36594;45.192;5.722;2023-02-02T01:41:45;100465.67;;;21.96;30.19
34197;BME280;36594;45.192;5.722;2023-02-02T01:47:59;100461.69;;;21.99;30.21
34197;BME280;36594;45.192;5.722;2023-02-02T01:50:51;100457.05;;;21.93;30.25
34197;BME280;36594;45.192;5.722;2023-02-02T01:53:40;100459.27;;;21.93;30.26
34197;BME280;36594;45.192;5.722;2023-02-02T01:56:35;100453.37;;;21.96;30.26
34197;BME280;36594;45.192;5.722;2023-02-02T01:59:23;100462.20;;;21.98;30.28
34197;BME280;36594;45.192;5.722;2023-02-02T02:02:13;100450.74;;;21.99;30.29
34197;BME280;36594;45.192;5.722;2023-02-02T02:05:02;100444.13;;;21.97;30.26
34197;BME280;36594;45.192;5.722;2023-02-02T02:07:56;100442.87;;;22.00;30.27
34197;BME280;36594;45.192;5.722;2023-02-02T02:10:43;100441.09;;;22.03;30.28
34197;BME280;36594;45.192;5.722;2023-02-02T02:13:34;100442.65;;;22.01;30.30
34197;BME280;36594;45.192;5.722;2023-02-02T02:16:53;100438.95;;;21.98;30.34
34197;BME280;36594;45.192;5.722;2023-02-02T02:23:43;100440.54;;;21.97;30.41
34197;BME280;36594;45.192;5.722;2023-02-02T02:36:01;100429.89;;;21.91;30.54
34197;BME280;36594;45.192;5.722;2023-02-02T02:38:51;100431.48;;;21.96;30.55
34197;BME280;36594;45.192;5.722;2023-02-02T02:41:44;100428.75;;;21.96;30.53
34197;BME280;36594;45.192;5.722;2023-02-02T02:44:32;100422.53;;;21.98;30.52
34197;BME280;36594;45.192;5.722;2023-02-02T02:47:22;100420.13;;;21.99;30.51
34197;BME280;36594;45.192;5.722;2023-02-02T02:50:11;100423.20;;;22.00;30.52
34197;BME280;36594;45.192;5.722;2023-02-02T02:53:06;100418.66;;;22.03;30.51
34197;BME280;36594;45.192;5.722;2023-02-02T02:56:05;100417.09;;;22.05;30.47
34197;BME280;36594;45.192;5.722;2023-02-02T02:58:57;100423.09;;;22.05;30.49
34197;BME280;36594;45.192;5.722;2023-02-02T03:01:50;100422.76;;;22.03;30.52
34197;BME280;36594;45.192;5.722;2023-02-02T03:04:38;100417.62;;;22.05;30.48
34197;BME280;36594;45.192;5.722;2023-02-02T03:07:30;100428.05;;;22.05;30.40
34197;BME280;36594;45.192;5.722;2023-02-02T03:10:19;100436.55;;;22.06;30.37
34197;BME280;36594;45.192;5.722;2023-02-02T03:13:11;100436.36;;;22.08;30.46
34197;BME280;36594;45.192;5.722;2023-02-02T03:16:00;100434.66;;;22.07;30.49
34197;BME280;36594;45.192;5.722;2023-02-02T03:18:49;100436.03;;;22.07;30.46
34197;BME280;36594;45.192;5.722;2023-02-02T03:21:37;100439.91;;;22.08;30.52
34197;BME280;36594;45.192;5.722;2023-02-02T03:24:26;100439.17;;;22.10;30.48
34197;BME280;36594;45.192;5.722;2023-02-02T03:27:14;100444.46;;;22.12;30.48
34197;BME280;36594;45.192;5.722;2023-02-02T03:30:03;100440.36;;;22.12;30.47
34197;BME280;36594;45.192;5.722;2023-02-02T03:32:52;100447.20;;;22.12;30.54
34197;BME280;36594;45.192;5.722;2023-02-02T03:35:41;100449.83;;;22.16;30.50
34197;BME280;36594;45.192;5.722;2023-02-02T03:38:29;100451.72;;;22.15;30.50
34197;BME280;36594;45.192;5.722;2023-02-02T03:41:18;100453.30;;;22.14;30.50
34197;BME280;36594;45.192;5.722;2023-02-02T03:44:06;100454.27;;;22.17;30.47
34197;BME280;36594;45.192;5.722;2023-02-02T03:46:55;100455.41;;;22.18;30.45
34197;BME280;36594;45.192;5.722;2023-02-02T03:49:43;100460.66;;;22.20;30.43
34197;BME280;36594;45.192;5.722;2023-02-02T03:52:31;100456.56;;;22.20;30.42
34197;BME280;36594;45.192;5.722;2023-02-02T03:55:20;100467.39;;;22.17;30.43
34197;BME280;36594;45.192;5.722;2023-02-02T03:58:08;100459.00;;;22.19;30.44
34197;BME280;36594;45.192;5.722;2023-02-02T04:01:05;100465.20;;;22.17;30.47
34197;BME280;36594;45.192;5.722;2023-02-02T04:03:55;100461.84;;;22.21;30.43
34197;BME280;36594;45.192;5.722;2023-02-02T04:06:43;100453.30;;;22.20;30.42
34197;BME280;36594;45.192;5.722;2023-02-02T04:09:32;100445.42;;;22.21;30.46
34197;BME280;36594;45.192;5.722;2023-02-02T04:12:20;100446.98;;;22.20;30.46
34197;BME280;36594;45.192;5.722;2023-02-02T04:15:08;100446.69;;;22.19;30.44
34197;BME280;36594;45.192;5.722;2023-02-02T04:17:58;100449.94;;;22.18;30.46
34197;BME280;36594;45.192;5.722;2023-02-02T04:20:46;100454.16;;;22.21;30.44
34197;BME280;36594;45.192;5.722;2023-02-02T04:23:34;100445.72;;;22.22;30.45
34197;BME280;36594;45.192;5.722;2023-02-02T04:26:22;100442.80;;;22.24;30.47
34197;BME280;36594;45.192;5.722;2023-02-02T04:29:13;100450.67;;;22.23;30.47
34197;BME280;36594;45.192;5.722;2023-02-02T04:32:01;100438.36;;;22.23;30.47
34197;BME280;36594;45.192;5.722;2023-02-02T04:34:49;100439.95;;;22.21;30.48
34197;BME280;36594;45.192;5.722;2023-02-02T04:37:38;100438.69;;;22.24;30.50
34197;BME280;36594;45.192;5.722;2023-02-02T04:40:26;100445.83;;;22.25;30.47
34197;BME280;36594;45.192;5.722;2023-02-02T04:43:15;100440.69;;;22.26;30.51
34197;BME280;36594;45.192;5.722;2023-02-02T04:46:03;100421.20;;;22.18;30.50
34197;BME280;36594;45.192;5.722;2023-02-02T04:48:52;100435.22;;;22.26;30.50
34197;BME280;36594;45.192;5.722;2023-02-02T04:51:40;100436.88;;;22.27;30.50
34197;BME280;36594;45.192;5.722;2023-02-02T04:54:29;100429.41;;;22.25;30.52
34197;BME280;36594;45.192;5.722;2023-02-02T04:57:17;100438.25;;;22.27;30.53
34197;BME280;36594;45.192;5.722;2023-02-02T05:00:07;100445.72;;;22.29;30.54
34197;BME280;36594;45.192;5.722;2023-02-02T05:02:57;100442.98;;;22.29;30.52
34197;BME280;36594;45.192;5.722;2023-02-02T05:05:45;100445.31;;;22.32;30.50
34197;BME280;36594;45.192;5.722;2023-02-02T05:08:35;100439.54;;;22.31;30.50
34197;BME280;36594;45.192;5.722;2023-02-02T05:11:23;100441.72;;;22.31;30.54
34197;BME280;36594;45.192;5.722;2023-02-02T05:14:12;100449.12;;;22.31;30.53
34197;BME280;36594;45.192;5.722;2023-02-02T05:17:03;100446.68;;;22.32;30.55
34197;BME280;36594;45.192;5.722;2023-02-02T05:19:51;100450.27;;;22.32;30.54
34197;BME280;36594;45.192;5.722;2023-02-02T05:22:40;100451.41;;;22.34;30.54
34197;BME280;36594;45.192;5.722;2023-02-02T05:25:29;100450.59;;;22.33;30.53
34197;BME280;36594;45.192;5.722;2023-02-02T05:28:18;100451.12;;;22.33;30.54
34197;BME280;36594;45.192;5.722;2023-02-02T05:31:08;100457.95;;;22.33;30.56
34197;BME280;36594;45.192;5.722;2023-02-02T05:33:56;100463.73;;;22.34;30.57
34197;BME280;36594;45.192;5.722;2023-02-02T05:36:45;100464.58;;;22.34;30.58
34197;BME280;36594;45.192;5.722;2023-02-02T05:39:33;100474.79;;;22.36;30.54
34197;BME280;36594;45.192;5.722;2023-02-02T05:42:22;100471.31;;;22.38;30.56
34197;BME280;36594;45.192;5.722;2023-02-02T05:45:10;100470.17;;;22.37;30.58
34197;BME280;36594;45.192;5.722;2023-02-02T05:47:59;100476.27;;;22.39;30.56
34197;BME280;36594;45.192;5.722;2023-02-02T05:51:37;100479.34;;;22.40;30.56
34197;BME280;36594;45.192;5.722;2023-02-02T05:53:38;100480.19;;;22.40;30.55
34197;BME280;36594;45.192;5.722;2023-02-02T05:56:27;100477.45;;;22.40;30.56
34197;BME280;36594;45.192;5.722;2023-02-02T05:59:16;100477.45;;;22.40;30.57
34197;BME280;36594;45.192;5.722;2023-02-02T06:02:05;100479.64;;;22.41;30.57
34197;BME280;36594;45.192;5.722;2023-02-02T06:04:53;100473.53;;;22.39;30.64
34197;BME280;36594;45.192;5.722;2023-02-02T06:07:41;100483.55;;;22.42;30.61
34197;BME280;36594;45.192;5.722;2023-02-02T06:10:30;100483.55;;;22.42;30.61
34197;BME280;36594;45.192;5.722;2023-02-02T06:13:18;100497.24;;;22.42;30.63
34197;BME280;36594;45.192;5.722;2023-02-02T06:16:07;100490.40;;;22.42;30.66
34197;BME280;36594;45.192;5.722;2023-02-02T06:18:56;100492.39;;;22.38;30.74
34197;BME280;36594;45.192;5.722;2023-02-02T06:21:45;100493.22;;;22.32;30.34
34197;BME280;36594;45.192;5.722;2023-02-02T06:24:33;100497.20;;;22.16;30.64
34197;BME280;36594;45.192;5.722;2023-02-02T06:27:21;100500.84;;;22.06;30.83
34197;BME280;36594;45.192;5.722;2023-02-02T06:30:11;100508.31;;;22.01;31.00
34197;BME280;36594;45.192;5.722;2023-02-02T06:33:00;100511.45;;;21.98;31.06
34197;BME280;36594;45.192;5.722;2023-02-02T06:35:48;100508.71;;;21.98;31.10
34197;BME280;36594;45.192;5.722;2023-02-02T06:38:37;100511.78;;;21.99;31.14
34197;BME280;36594;45.192;5.722;2023-02-02T06:41:25;100518.41;;;22.01;31.17
34197;BME280;36594;45.192;5.722;2023-02-02T06:44:14;100513.48;;;22.00;31.17
34197;BME280;36594;45.192;5.722;2023-02-02T06:47:03;100509.67;;;22.01;31.22
34197;BME280;36594;45.192;5.722;2023-02-02T06:49:51;100517.20;;;22.17;31.14
34197;BME280;36594;45.192;5.722;2023-02-02T06:52:39;100513.73;;;22.25;31.00
34197;BME280;36594;45.192;5.722;2023-02-02T06:55:29;100510.48;;;22.32;30.92
34197;BME280;36594;45.192;5.722;2023-02-02T06:58:17;100514.30;;;22.38;30.83
34197;BME280;36594;45.192;5.722;2023-02-02T07:01:11;100513.67;;;22.42;30.83
34197;BME280;36594;45.192;5.722;2023-02-02T07:04:00;100520.18;;;22.41;30.79
34197;BME280;36594;45.192;5.722;2023-02-02T07:06:49;100518.08;;;22.43;30.76
34197;BME280;36594;45.192;5.722;2023-02-02T07:09:37;100520.30;;;22.44;30.75
34197;BME280;36594;45.192;5.722;2023-02-02T07:12:26;100524.40;;;22.44;30.73
34197;BME280;36594;45.192;5.722;2023-02-02T07:15:14;100525.44;;;22.43;30.81
34197;BME280;36594;45.192;5.722;2023-02-02T07:18:03;100527.47;;;22.45;30.79
34197;BME280;36594;45.192;5.722;2023-02-02T07:20:52;100527.77;;;22.46;30.79
34197;BME280;36594;45.192;5.722;2023-02-02T07:23:40;100528.63;;;22.46;30.87
34197;BME280;36594;45.192;5.722;2023-02-02T07:26:29;100523.99;;;22.47;30.87
34197;BME280;36594;45.192;5.722;2023-02-02T07:29:17;100530.73;;;22.51;30.85
34197;BME280;36594;45.192;5.722;2023-02-02T07:32:06;100541.68;;;22.51;30.78
34197;BME280;36594;45.192;5.722;2023-02-02T07:34:54;100533.98;;;22.50;30.84
34197;BME280;36594;45.192;5.722;2023-02-02T07:37:43;100527.14;;;22.50;30.89
34197;BME280;36594;45.192;5.722;2023-02-02T07:40:31;100528.51;;;22.50;30.90
34197;BME280;36594;45.192;5.722;2023-02-02T07:43:19;100530.31;;;22.47;30.97
34197;BME280;36594;45.192;5.722;2023-02-02T07:46:09;100532.31;;;22.49;31.00
34197;BME280;36594;45.192;5.722;2023-02-02T07:48:59;100538.72;;;22.52;30.96
34197;BME280;36594;45.192;5.722;2023-02-02T07:51:47;100541.57;;;22.55;31.00
34197;BME280;36594;45.192;5.722;2023-02-02T07:54:36;100552.52;;;22.55;31.08
34197;BME280;36594;45.192;5.722;2023-02-02T07:57:24;100553.59;;;22.54;31.11
34197;BME280;36594;45.192;5.722;2023-02-02T08:00:13;100551.38;;;22.53;31.19
34197;BME280;36594;45.192;5.722;2023-02-02T08:03:02;100554.63;;;22.53;31.23
34197;BME280;36594;45.192;5.722;2023-02-02T08:05:50;100559.89;;;22.54;31.19
34197;BME280;36594;45.192;5.722;2023-02-02T08:08:38;100553.89;;;22.55;31.18
34197;BME280;36594;45.192;5.722;2023-02-02T08:11:28;100555.27;;;22.55;31.14
34197;BME280;36594;45.192;5.722;2023-02-02T08:14:16;100558.63;;;22.57;31.13
34197;BME280;36594;45.192;5.722;2023-02-02T08:17:04;100556.11;;;22.55;31.08
34197;BME280;36594;45.192;5.722;2023-02-02T08:22:40;100556.55;;;22.59;31.02
34197;BME280;36594;45.192;5.722;2023-02-02T08:25:28;100561.70;;;22.58;31.00
34197;BME280;36594;45.192;5.722;2023-02-02T08:28:17;100554.22;;;22.56;30.98
34197;BME280;36594;45.192;5.722;2023-02-02T08:31:17;100558.44;;;22.58;30.96
34197;BME280;36594;45.192;5.722;2023-02-02T08:34:06;100567.10;;;22.62;30.93
34197;BME280;36594;45.192;5.722;2023-02-02T08:39:41;100570.44;;;22.57;30.94
34197;BME280;36594;45.192;5.722;2023-02-02T08:42:30;100571.20;;;22.62;30.92
34197;BME280;36594;45.192;5.722;2023-02-02T08:45:19;100572.06;;;22.62;30.87
34197;BME280;36594;45.192;5.722;2023-02-02T08:48:08;100578.05;;;22.62;30.86
34197;BME280;36594;45.192;5.722;2023-02-02T08:50:57;100578.05;;;22.62;30.82
34197;BME280;36594;45.192;5.722;2023-02-02T08:53:46;100579.87;;;22.65;30.79
34197;BME280;36594;45.192;5.722;2023-02-02T08:56:35;100582.91;;;22.66;30.82
34197;BME280;36594;45.192;5.722;2023-02-02T08:59:23;100579.53;;;22.64;30.78
34197;BME280;36594;45.192;5.722;2023-02-02T09:02:11;100579.34;;;22.66;30.74
34197;BME280;36594;45.192;5.722;2023-02-02T09:05:01;100586.38;;;22.64;30.77
34197;BME280;36594;45.192;5.722;2023-02-02T09:07:49;100586.38;;;22.64;30.77
34197;BME280;36594;45.192;5.722;2023-02-02T09:10:38;100581.23;;;22.65;30.77
34197;BME280;36594;45.192;5.722;2023-02-02T09:13:26;100576.39;;;22.61;30.79
34197;BME280;36594;45.192;5.722;2023-02-02T09:16:16;100578.05;;;22.62;30.78
34197;BME280;36594;45.192;5.722;2023-02-02T09:19:05;100572.80;;;22.60;30.77
34197;BME280;36594;45.192;5.722;2023-02-02T09:21:54;100585.75;;;22.62;30.77
34197;BME280;36594;45.192;5.722;2023-02-02T09:24:42;100578.05;;;22.62;30.76
34197;BME280;36594;45.192;5.722;2023-02-02T09:27:35;100577.75;;;22.61;30.76
34197;BME280;36594;45.192;5.722;2023-02-02T09:30:20;100587.86;;;22.60;30.76
34197;BME280;36594;45.192;5.722;2023-02-02T09:33:09;100586.09;;;22.63;30.74
34197;BME280;36594;45.192;5.722;2023-02-02T09:36:05;100583.34;;;22.63;30.73
34197;BME280;36594;45.192;5.722;2023-02-02T09:38:55;100587.97;;;22.63;30.75
34197;BME280;36594;45.192;5.722;2023-02-02T09:48:01;100586.49;;;22.60;30.79
34197;BME280;36594;45.192;5.722;2023-02-02T09:50:56;100591.75;;;22.62;30.72
34197;BME280;36594;45.192;5.722;2023-02-02T09:53:48;100593.83;;;22.60;30.73
34197;BME280;36594;45.192;5.722;2023-02-02T09:56:39;100596.37;;;22.61;30.72
34197;BME280;36594;45.192;5.722;2023-02-02T09:59:31;100599.11;;;22.61;30.67
34197;BME280;36594;45.192;5.722;2023-02-02T10:02:23;100609.55;;;22.62;30.68
34197;BME280;36594;45.192;5.722;2023-02-02T10:05:16;100613.36;;;22.61;30.75
34197;BME280;36594;45.192;5.722;2023-02-02T10:08:06;100613.14;;;22.62;30.68
34197;BME280;36594;45.192;5.722;2023-02-02T10:10:56;100620.84;;;22.63;30.69
34197;BME280;36594;45.192;5.722;2023-02-02T10:13:45;100622.32;;;22.65;30.66
34197;BME280;36594;45.192;5.722;2023-02-02T10:16:35;100621.80;;;22.66;30.68
34197;BME280;36594;45.192;5.722;2023-02-02T10:19:26;100616.91;;;22.61;30.68
34197;BME280;36594;45.192;5.722;2023-02-02T10:22:24;100621.36;;;22.62;30.67
34197;BME280;36594;45.192;5.722;2023-02-02T10:25:15;100614.29;;;22.64;30.68
34197;BME280;36594;45.192;5.722;2023-02-02T10:28:09;100611.88;;;22.65;30.66
34197;BME280;36594;45.192;5.722;2023-02-02T10:31:00;100616.51;;;22.64;30.68
34197;BME280;36594;45.192;5.722;2023-02-02T10:34:12;100619.06;;;22.66;30.64
34197;BME280;36594;45.192;5.722;2023-02-02T10:43:04;100614.29;;;22.64;30.65
34197;BME280;36594;45.192;5.722;2023-02-02T10:46:09;100605.96;;;22.61;30.66
34197;BME280;36594;45.192;5.722;2023-02-02T10:55:18;100602.19;;;22.62;30.70
34197;BME280;36594;45.192;5.722;2023-02-02T11:01:05;100603.70;;;22.54;30.79
34197;BME280;36594;45.192;5.722;2023-02-02T11:03:55;100602.26;;;22.58;30.79
34197;BME280;36594;45.192;5.722;2023-02-02T11:07:02;100597.63;;;22.59;30.68
34197;BME280;36594;45.192;5.722;2023-02-02T11:09:50;100603.81;;;22.57;30.75
34197;BME280;36594;45.192;5.722;2023-02-02T11:12:42;100587.86;;;22.60;30.71
34197;BME280;36594;45.192;5.722;2023-02-02T11:15:33;100585.23;;;22.63;30.65
34197;BME280;36594;45.192;5.722;2023-02-02T11:18:29;100581.42;;;22.64;30.65
34197;BME280;36594;45.192;5.722;2023-02-02T11:21:32;100579.34;;;22.66;30.67
34197;BME280;36594;45.192;5.722;2023-02-02T11:25:18;100572.06;;;22.62;30.68
34197;BME280;36594;45.192;5.722;2023-02-02T11:27:20;100564.36;;;22.62;30.67
34197;BME280;36594;45.192;5.722;2023-02-02T11:30:27;100561.44;;;22.63;30.65
34197;BME280;36594;45.192;5.722;2023-02-02T11:33:28;100560.25;;;22.62;30.65
34197;BME280;36594;45.192;5.722;2023-02-02T11:36:19;100557.84;;;22.63;30.68
34197;BME280;36594;45.192;5.722;2023-02-02T11:39:17;100559.22;;;22.63;30.65
34197;BME280;36594;45.192;5.722;2023-02-02T11:42:16;100553.33;;;22.66;30.58
34197;BME280;36594;45.192;5.722;2023-02-02T11:45:13;100551.84;;;22.63;30.61
34197;BME280;36594;45.192;5.722;2023-02-02T11:48:04;100552.04;;;22.62;30.67
34197;BME280;36594;45.192;5.722;2023-02-02T11:50:55;100556.25;;;22.64;30.62
34197;BME280;36594;45.192;5.722;2023-02-02T11:53:45;100556.48;;;22.63;30.63
34197;BME280;36594;45.192;5.722;2023-02-02T11:56:36;100556.25;;;22.64;30.65
34197;BME280;36594;45.192;5.722;2023-02-02T11:59:40;100557.11;;;22.65;30.65
34197;BME280;36594;45.192;5.722;2023-02-02T12:02:30;100560.70;;;22.65;30.58
34197;BME280;36594;45.192;5.722;2023-02-02T12:08:11;100558.36;;;22.69;30.61
34197;BME280;36594;45.192;5.722;2023-02-02T12:11:01;100566.06;;;22.69;30.58
34197;BME280;36594;45.192;5.722;2023-02-02T12:14:10;100570.06;;;22.67;30.55
34197;BME280;36594;45.192;5.722;2023-02-02T12:20:18;100565.73;;;22.62;30.59
34197;BME280;36594;45.192;5.722;2023-02-02T12:23:12;100567.21;;;22.64;30.60
34197;BME280;36594;45.192;5.722;2023-02-02T12:26:20;100552.37;;;22.63;30.63
34197;BME280;36594;45.192;5.722;2023-02-02T12:38:58;100531.80;;;22.56;30.67
34197;BME280;36594;45.192;5.722;2023-02-02T12:42:18;100544.94;;;22.57;30.67
34197;BME280;36594;45.192;5.722;2023-02-02T12:48:24;100538.09;;;22.57;30.72
34197;BME280;36594;45.192;5.722;2023-02-02T12:51:27;100527.99;;;22.57;30.66
34197;BME280;36594;45.192;5.722;2023-02-02T12:57:39;100533.58;;;22.60;30.66
34197;BME280;36594;45.192;5.722;2023-02-02T13:07:05;100503.34;;;22.57;30.67
34197;BME280;36594;45.192;5.722;2023-02-02T13:13:26;100498.61;;;22.55;30.70
34197;BME280;36594;45.192;5.722;2023-02-02T13:16:04;100494.72;;;22.54;30.69
34197;BME280;36594;45.192;5.722;2023-02-02T13:18:46;100493.23;;;22.58;30.62
34197;BME280;36594;45.192;5.722;2023-02-02T13:21:35;100495.46;;;22.58;30.61
34197;BME280;36594;45.192;5.722;2023-02-02T13:24:28;100479.98;;;22.61;30.60
34197;BME280;36594;45.192;5.722;2023-02-02T13:27:21;100473.03;;;22.59;30.57
34197;BME280;36594;45.192;5.722;2023-02-02T13:30:25;100474.51;;;22.61;30.52
34197;BME280;36594;45.192;5.722;2023-02-02T13:33:15;100472.33;;;22.61;30.50
34197;BME280;36594;45.192;5.722;2023-02-02T13:39:16;100469.80;;;22.66;30.38
34197;BME280;36594;45.192;5.722;2023-02-02T13:41:59;100464.73;;;22.63;30.40
34197;BME280;36594;45.192;5.722;2023-02-02T13:44:52;100453.37;;;22.66;30.30
34197;BME280;36594;45.192;5.722;2023-02-02T13:47:43;100470.84;;;22.65;30.27
34197;BME280;36594;45.192;5.722;2023-02-02T13:50:34;100472.84;;;22.67;30.22
34197;BME280;36594;45.192;5.722;2023-02-02T13:53:37;100465.24;;;22.69;30.16
34197;BME280;36594;45.192;5.722;2023-02-02T14:00:22;100467.47;;;22.63;30.17
34197;BME280;36594;45.192;5.722;2023-02-02T14:03:34;100461.75;;;22.58;30.16
34197;BME280;36594;45.192;5.722;2023-02-02T14:06:27;100478.30;;;22.54;30.18
34197;BME280;36594;45.192;5.722;2023-02-02T14:09:18;100481.55;;;22.53;30.15
34197;BME280;36594;45.192;5.722;2023-02-02T14:12:08;100486.80;;;22.55;30.11
34197;BME280;36594;45.192;5.722;2023-02-02T14:14:58;100477.85;;;22.57;30.03
34197;BME280;36594;45.192;5.722;2023-02-02T14:17:49;100480.92;;;22.58;30.01
34197;BME280;36594;45.192;5.722;2023-02-02T14:20:47;100468.32;;;22.63;29.97
34197;BME280;36594;45.192;5.722;2023-02-02T14:23:49;100477.05;;;22.63;29.88
34197;BME280;36594;45.192;5.722;2023-02-02T14:26:43;100483.14;;;22.58;29.92
34197;BME280;36594;45.192;5.722;2023-02-02T14:32:27;100491.35;;;22.58;29.91
34197;BME280;36594;45.192;5.722;2023-02-02T14:41:42;100496.91;;;22.54;29.91
34197;BME280;36594;45.192;5.722;2023-02-02T14:50:57;100490.70;;;22.50;29.99
34197;BME280;36594;45.192;5.722;2023-02-02T14:53:52;100482.19;;;22.49;29.97
34197;BME280;36594;45.192;5.722;2023-02-02T14:56:52;100496.39;;;22.55;29.85
34197;BME280;36594;45.192;5.722;2023-02-02T14:59:41;100503.56;;;22.56;29.89
34197;BME280;36594;45.192;5.722;2023-02-02T15:02:33;100499.57;;;22.52;29.89
34197;BME280;36594;45.192;5.722;2023-02-02T15:08:25;100510.82;;;22.53;29.86
34197;BME280;36594;45.192;5.722;2023-02-02T15:11:14;100506.94;;;22.51;29.90
34197;BME280;36594;45.192;5.722;2023-02-02T15:14:15;100509.78;;;22.54;29.81
34197;BME280;36594;45.192;5.722;2023-02-02T15:20:21;100509.78;;;22.54;29.77
34197;BME280;36594;45.192;5.722;2023-02-02T15:23:37;100507.86;;;22.54;29.79
34197;BME280;36594;45.192;5.722;2023-02-02T15:26:31;100517.77;;;22.55;29.69
34197;BME280;36594;45.192;5.722;2023-02-02T15:29:23;100513.56;;;22.53;29.77
34197;BME280;36594;45.192;5.722;2023-02-02T15:32:19;100513.56;;;22.53;29.71
34197;BME280;36594;45.192;5.722;2023-02-02T15:35:13;100516.30;;;22.53;29.68
34197;BME280;36594;45.192;5.722;2023-02-02T15:38:01;100514.08;;;22.52;29.68
34197;BME280;36594;45.192;5.722;2023-02-02T15:40:51;100516.19;;;22.50;29.64
34197;BME280;36594;45.192;5.722;2023-02-02T15:43:39;100514.41;;;22.53;29.63
34197;BME280;36594;45.192;5.722;2023-02-02T15:46:33;100509.45;;;22.53;29.65
34197;BME280;36594;45.192;5.722;2023-02-02T15:49:27;100521.25;;;22.53;29.63
34197;BME280;36594;45.192;5.722;2023-02-02T15:52:24;100510.19;;;22.51;29.64
34197;BME280;36594;45.192;5.722;2023-02-02T15:55:30;100518.08;;;22.50;29.63
34197;BME280;36594;45.192;5.722;2023-02-02T15:58:33;100515.15;;;22.45;29.68
34197;BME280;36594;45.192;5.722;2023-02-02T16:01:23;100515.56;;;22.42;29.73
34197;BME280;36594;45.192;5.722;2023-02-02T16:04:30;100521.66;;;22.44;29.72
34197;BME280;36594;45.192;5.722;2023-02-02T16:07:22;100517.03;;;22.44;29.67
34197;BME280;36594;45.192;5.722;2023-02-02T16:10:15;100513.34;;;22.41;29.72
34197;BME280;36594;45.192;5.722;2023-02-02T16:13:02;100528.17;;;22.43;29.72
34197;BME280;36594;45.192;5.722;2023-02-02T16:16:05;100534.50;;;22.43;29.66
34197;BME280;36594;45.192;5.722;2023-02-02T16:22:03;100529.36;;;22.44;29.62
34197;BME280;36594;45.192;5.722;2023-02-02T16:24:54;100530.83;;;22.40;29.70
34197;BME280;36594;45.192;5.722;2023-02-02T16:27:45;100530.91;;;22.43;29.66
34197;BME280;36594;45.192;5.722;2023-02-02T16:30:39;100535.02;;;22.43;29.68
34197;BME280;36594;45.192;5.722;2023-02-02T16:33:36;100535.35;;;22.44;29.66
34197;BME280;36594;45.192;5.722;2023-02-02T16:36:27;100537.05;;;22.45;29.61
34197;BME280;36594;45.192;5.722;2023-02-02T16:39:21;100530.51;;;22.46;29.62
34197;BME280;36594;45.192;5.722;2023-02-02T16:42:30;100533.13;;;22.43;29.55